AirNav   Everest Fuels
 
 1267 users online  

2MA2 Digital Heliport
Hudson, Massachusetts, USA

GOING TO HUDSON?


FAA INFORMATION EFFECTIVE 25 MARCH 2021

Location

FAA Identifier: 2MA2
Lat/Long: 42-22-25.0000N 071-33-30.0000W
42-22.416667N 071-33.500000W
42.3736111,-71.5583333
(estimated)
Elevation: 450 ft. / 137 m (estimated)
Variation: 16W (1980)
From city: 5 miles NE of HUDSON, MA
Time zone: UTC -4 (UTC -5 during Standard Time)
Zip code: 01701

Heliport Operations

Heliport use: Private use. Permission required prior to landing
Activation date: 10/1986
Control tower: no
ARTCC: BOSTON CENTER
FSS: BRIDGEPORT FLIGHT SERVICE STATION
Attendance: UNATNDD
Wind indicator: yes
Segmented circle: no

Heliport Communications

UNICOM: 123.05
WX ASOS at BED (13 nm NE): 124.6 (781-274-9733)
WX ASOS at FIT (14 nm NW): 135.175 (978-343-9121)
WX ASOS at ORH (15 nm SW): PHONE 508-795-7546

Nearby radio navigation aids

VOR radial/distance  VOR name  Freq  Var
GDMr129/24.4GARDNER VOR/DME110.6014W
BOSr288/25.2BOSTON VOR/DME112.7016W
PUTr041/28.1PUTNAM VOR/DME117.4014W
LWMr238/30.1LAWRENCE VOR/DME112.5015W
MHTr211/30.8MANCHESTER VOR/DME114.4015W
PVDr006/39.4PROVIDENCE VOR/DME115.6014W

Heliport Services

Runway Information

Helipad H1

Dimensions: 32 x 32 ft. / 10 x 10 m
Surface: concrete
Latitude: 42-22.416667N
Longitude: 071-33.500000W
Elevation: 450.0 ft.
Traffic pattern: leftleft

Heliport Ownership and Management from official FAA records

Ownership: Privately-owned
Owner: DIGITAL EQUIPMENT CORP.
HANSCOM FIELD HANGER NR 5
BEDFORD, MA 01730
Phone 508-493-7200
Manager: M. HENRY WIFHOLM
HANSCOM FIELD HANGER NR 5
BEDFORD, MA 01730
Phone 508-493-7200

Additional Remarks

FOR CD CTC BOSTON APCH AT 603-594-5551.

Instrument Procedures

There are no published instrument procedures at 2MA2.

Some nearby airports with instrument procedures:

6B6 - Minute Man Air Field (6 nm N)
KBED - Laurence G Hanscom Field Airport (13 nm NE)
KFIT - Fitchburg Municipal Airport (14 nm NW)
KORH - Worcester Regional Airport (15 nm SW)
1B6 - Hopedale Industrial Park Airport (16 nm S)
 
Loc | Ops | Rwys | IFR | FBO | Links
Com | Nav | Svcs | Stats | Notes
Area around 2MA2 (Digital Heliport)
 
Road maps at: MapQuest Bing Google
 
Aerial photo
No photo
 
Sectional chart

 
Airport distance calculator
Flying to Digital Heliport? Find the distance to fly.

From to 2MA2

Sunrise and sunset
Times for 17-Apr-2021
 Local
(UTC-4)
 Zulu
(UTC)
Morning civil twilight05:3409:34
Sunrise06:0310:03
Sunset19:2923:29
Evening civil twilight19:5823:58

Current date and time
Zulu (UTC)  17-Apr-2021 15:52:59
Local (UTC-4)  17-Apr-2021 11:52:59
 
METAR
KBED 
13nm NE 
171458Z 34006KT 6SM -RA BR BKN012 OVC020 04/02 A2972 RMK AO2 P0001 T00390017 $
KFIT 
14nm NW 
171506Z AUTO 36009KT 10SM SCT023 BKN028 OVC060 06/01 A2973 RMK AO2 T00560011
KORH 
15nm SW 
171454Z 34008KT 10SM FEW016 SCT023 OVC038 04/00 A2971 RMK AO2 RAE02B43E53 SLP069 P0000 60000 T00390000 53010
KOWD 
21nm SE 
171453Z 34009KT 10SM -RA BKN018 BKN024 OVC035 04/01 A2973 RMK AO2 SLP068 P0001 60001 T00440006 53015
KMQE 
22nm SE 
171451Z AUTO 34010KT 02/01 A2969 RMK AO1 SLP070 P0001 60001 T00170006 51015
KASH 
24nm N 
171505Z 33007KT 10SM BKN019 BKN049 OVC060 04/02 A2974 RMK AO2 RAE05 P0000
KBOS 
24nm E 
171454Z 33012KT 10SM -RA BKN012 OVC018 04/01 A2973 RMK AO2 SLP066 P0002 60003 T00440011 51013
TAF
KBED 
13nm NE 
171120Z 1712/1812 33009KT P6SM VCSH OVC015 FM171400 34009KT P6SM VCSH OVC010 FM171600 34009KT P6SM OVC015 FM172200 34005KT P6SM OVC030 FM180000 35004KT P6SM OVC035 FM180600 00000KT 3SM BR OVC045
KORH 
15nm SW 
171120Z 1712/1812 33008KT P6SM OVC015 FM171600 33008KT P6SM OVC020 FM172000 33008KT P6SM OVC035 FM172300 33005KT P6SM BKN045 FM180500 30004KT 5SM BR BKN050
NOTAMs
Click for the latest NOTAMs
NOTAMs are issued by the DoD/FAA and will open in a separate window not controlled by AirNav.

 

 
 

Would you like to see your business listed on this page?

 If your business provides an interesting product or service to pilots, flight crews, aircraft, or users of the Digital Heliport, you should consider listing it here.  To start the listing process, click on the button below
 
Add a business
 

Other Pages about Digital Heliport

Update a link
 
Copyright © AirNav, LLC. All rights reserved. Privacy Policy  Contact